Time;durP1;ratioP1;P1;durP2;ratioP2;P2;SDS_P1;SDS_P2;PMS_P1;PMS_P2;Temp;Humidity;BMP_temperature;BMP_pressure;BME280_temperature;BME280_humidity;BME280_pressure;Samples;Min_cycle;Max_cycle;Signal;HPM_P1;HPM_P2
2022/09/09 00:02:19;;;;;;;19.27;12.55;;;14.60;99.90;;;;;;4970849;28;20243;-91
2022/09/09 00:05:22;;;;;;;19.92;12.45;;;14.80;99.90;;;;;;4970179;28;20049;-92
2022/09/09 00:07:55;;;;;;;18.90;12.68;;;14.80;99.90;;;;;;4979989;28;20066;-91
2022/09/09 00:10:39;;;;;;;16.48;12.38;;;14.70;99.90;;;;;;4978830;28;20813;-91
2022/09/09 00:13:46;;;;;;;17.80;12.63;;;14.80;99.90;;;;;;4992385;28;20053;-92
2022/09/09 00:16:25;;;;;;;17.75;12.73;;;14.50;99.90;;;;;;4967682;28;20182;-92
2022/09/09 00:19:17;;;;;;;24.80;12.40;;;14.50;99.90;;;;;;4985078;28;20104;-92
2022/09/09 00:22:15;;;;;;;14.90;11.75;;;14.50;99.90;;;;;;4966115;28;20495;-92
2022/09/09 00:24:53;;;;;;;16.33;12.20;;;14.60;99.90;;;;;;4969452;28;20418;-90
2022/09/09 00:27:45;;;;;;;16.00;11.48;;;14.50;99.90;;;;;;4967744;28;20054;-90
2022/09/09 00:30:25;;;;;;;19.65;13.18;;;14.50;99.90;;;;;;4967039;28;20033;-92
2022/09/09 00:33:16;;;;;;;16.80;12.35;;;14.50;99.90;;;;;;4969834;28;20089;-90
2022/09/09 00:35:47;;;;;;;17.27;12.80;;;14.40;99.90;;;;;;4965281;28;20489;-91
2022/09/09 00:38:17;;;;;;;19.42;12.57;;;14.50;99.90;;;;;;4970888;28;20473;-91
2022/09/09 00:41:03;;;;;;;14.88;11.00;;;14.30;99.90;;;;;;4968042;28;20038;-92
2022/09/09 00:43:36;;;;;;;17.63;12.15;;;14.40;99.90;;;;;;4968569;28;20209;-90
2022/09/09 00:46:22;;;;;;;16.42;11.88;;;14.30;99.90;;;;;;4970025;28;20077;-91
2022/09/09 00:49:15;;;;;;;16.83;11.45;;;14.30;99.90;;;;;;4971041;28;20050;-92
2022/09/09 00:52:13;;;;;;;16.95;12.00;;;14.30;99.90;;;;;;4971005;28;20050;-91
2022/09/09 00:55:01;;;;;;;20.08;11.75;;;14.20;99.90;;;;;;4966978;28;20196;-92
2022/09/09 00:57:31;;;;;;;15.23;11.85;;;14.20;99.90;;;;;;4989718;28;20050;-91
2022/09/09 01:00:21;;;;;;;16.63;11.43;;;14.00;99.90;;;;;;4971334;28;20485;-90
2022/09/09 01:03:10;;;;;;;18.92;12.35;;;14.10;99.90;;;;;;4967730;28;20049;-91
2022/09/09 01:06:00;;;;;;;15.05;10.70;;;14.20;99.90;;;;;;4968191;28;20121;-91
2022/09/09 01:08:44;;;;;;;16.98;11.30;;;14.20;99.90;;;;;;4993507;28;20061;-92
2022/09/09 01:11:20;;;;;;;16.48;11.70;;;14.20;99.90;;;;;;4995807;28;20042;-93
2022/09/09 01:13:52;;;;;;;13.52;11.15;;;14.10;99.90;;;;;;4969299;28;20442;-92
2022/09/09 01:16:18;;;;;;;16.05;11.13;;;14.00;99.90;;;;;;4969977;28;20089;-95
2022/09/09 01:18:49;;;;;;;15.25;11.15;;;14.10;99.90;;;;;;4991504;28;20042;-92
2022/09/09 01:21:14;;;;;;;14.23;11.18;;;13.90;99.90;;;;;;4970224;28;20346;-90
2022/09/09 01:23:52;;;;;;;16.35;11.50;;;13.90;99.90;;;;;;4969195;28;20466;-92
2022/09/09 01:26:35;;;;;;;19.77;12.75;;;13.90;99.90;;;;;;4975749;28;20592;-91
2022/09/09 01:29:01;;;;;;;14.73;11.82;;;14.10;99.90;;;;;;4998555;28;21288;-90
2022/09/09 01:31:55;;;;;;;17.30;11.65;;;13.90;99.90;;;;;;4992689;28;20061;-90
2022/09/09 01:34:24;;;;;;;16.23;12.07;;;14.00;99.90;;;;;;4993171;28;20053;-90
2022/09/09 01:36:57;;;;;;;15.75;10.95;;;13.90;99.90;;;;;;4968895;28;20665;-91
2022/09/09 01:39:23;;;;;;;17.80;11.27;;;13.80;99.90;;;;;;5001035;28;20034;-92
2022/09/09 01:41:49;;;;;;;20.55;11.98;;;14.00;99.90;;;;;;4975159;28;20402;-91
2022/09/09 01:44:17;;;;;;;16.38;11.80;;;14.00;99.90;;;;;;4997398;28;20037;-91
2022/09/09 01:46:43;;;;;;;19.17;11.43;;;14.00;99.90;;;;;;4971499;28;20062;-92
2022/09/09 01:49:10;;;;;;;16.80;11.95;;;14.00;99.90;;;;;;4972672;28;20038;-91
2022/09/09 01:51:38;;;;;;;21.02;12.98;;;13.90;99.90;;;;;;4967799;28;20152;-90
2022/09/09 01:54:04;;;;;;;19.00;11.77;;;14.20;99.90;;;;;;4972715;28;20197;-91
2022/09/09 01:56:45;;;;;;;23.45;13.93;;;14.00;99.90;;;;;;4970015;28;20140;-92
2022/09/09 01:59:26;;;;;;;21.40;13.10;;;14.10;99.90;;;;;;5006032;28;20372;-91
2022/09/09 02:02:13;;;;;;;19.98;13.00;;;14.10;99.90;;;;;;4985083;28;20034;-91
2022/09/09 02:04:48;;;;;;;17.45;12.32;;;14.10;99.90;;;;;;4984204;28;20055;-92
2022/09/09 02:07:28;;;;;;;19.60;11.68;;;14.20;99.90;;;;;;4975454;28;20089;-90
2022/09/09 02:10:20;;;;;;;19.33;11.60;;;14.30;99.90;;;;;;4984685;28;20226;-92
2022/09/09 02:13:02;;;;;;;16.65;11.55;;;14.30;99.90;;;;;;4990119;28;20202;-90
2022/09/09 02:15:36;;;;;;;16.95;11.77;;;14.20;99.90;;;;;;4973457;28;20027;-90
2022/09/09 02:18:07;;;;;;;16.88;11.70;;;14.30;99.90;;;;;;4973496;28;20029;-89
2022/09/09 02:20:37;;;;;;;15.85;11.50;;;14.20;99.90;;;;;;4969937;28;20435;-90
2022/09/09 02:23:05;;;;;;;17.27;12.02;;;14.30;99.90;;;;;;4996824;28;20116;-91
2022/09/09 02:25:33;;;;;;;16.77;12.10;;;14.40;99.90;;;;;;4973854;28;20057;-91
2022/09/09 02:28:00;;;;;;;17.48;11.20;;;14.40;99.90;;;;;;4995543;28;20585;-92
2022/09/09 02:30:32;;;;;;;15.82;11.05;;;14.40;99.90;;;;;;4993716;28;20332;-91
2022/09/09 02:32:59;;;;;;;19.63;11.00;;;14.50;99.90;;;;;;4969282;28;20048;-93
2022/09/09 02:35:28;;;;;;;14.98;10.63;;;14.50;99.90;;;;;;4995051;28;20042;-92
2022/09/09 02:37:56;;;;;;;18.27;10.68;;;14.60;99.90;;;;;;4991072;28;20399;-91
2022/09/09 02:40:22;;;;;;;16.55;11.00;;;14.70;99.90;;;;;;4986457;28;20108;-92
2022/09/09 02:42:49;;;;;;;16.90;11.45;;;14.60;99.90;;;;;;4986329;28;20084;-93
2022/09/09 02:45:27;;;;;;;16.48;11.25;;;14.60;99.90;;;;;;5012275;28;20042;-90
2022/09/09 02:47:59;;;;;;;17.58;10.48;;;14.80;99.90;;;;;;4986015;28;20402;-91
2022/09/09 02:51:09;;;;;;;16.60;10.38;;;14.70;99.90;;;;;;4972422;28;20547;-90
2022/09/09 02:54:09;;;;;;;13.10;9.82;;;14.80;99.90;;;;;;4931113;28;20067;-91
2022/09/09 02:56:46;;;;;;;12.23;9.45;;;14.90;99.90;;;;;;4952446;28;20077;-92
2022/09/09 02:59:14;;;;;;;13.80;9.05;;;15.00;99.90;;;;;;4986703;28;20481;-91
2022/09/09 03:01:41;;;;;;;13.77;9.05;;;15.00;99.90;;;;;;4972033;28;20042;-90
2022/09/09 03:04:06;;;;;;;15.95;9.35;;;14.90;99.90;;;;;;5014907;28;20081;-92
2022/09/09 03:06:35;;;;;;;14.75;8.65;;;15.00;99.90;;;;;;4969073;28;20042;-92
2022/09/09 03:09:02;;;;;;;13.23;8.60;;;14.90;99.90;;;;;;4971927;28;20092;-92
2022/09/09 03:11:28;;;;;;;11.68;8.55;;;15.00;99.90;;;;;;4989384;28;20038;-93
2022/09/09 03:13:55;;;;;;;13.13;8.90;;;15.10;99.90;;;;;;4972479;28;20184;-91
2022/09/09 03:16:22;;;;;;;11.13;8.02;;;15.00;99.90;;;;;;4970550;28;20038;-91
2022/09/09 03:18:48;;;;;;;11.55;7.88;;;15.00;99.90;;;;;;5014564;28;20113;-90
2022/09/09 03:21:15;;;;;;;11.45;7.05;;;15.20;99.90;;;;;;4968627;28;20039;-91
2022/09/09 03:23:40;;;;;;;13.02;7.47;;;15.10;99.90;;;;;;4959824;28;20109;-94
2022/09/09 03:26:07;;;;;;;12.18;7.88;;;15.30;99.90;;;;;;4969463;28;20070;-90
2022/09/09 03:28:32;;;;;;;12.25;7.03;;;15.10;99.90;;;;;;4996191;28;20435;-93
2022/09/09 03:31:03;;;;;;;11.02;6.80;;;15.20;99.90;;;;;;5020985;28;20069;-93
2022/09/09 03:33:31;;;;;;;21.85;7.20;;;15.20;99.90;;;;;;4976039;28;20069;-91
2022/09/09 03:35:57;;;;;;;21.33;5.80;;;15.40;99.90;;;;;;4971383;28;20088;-92
2022/09/09 03:38:26;;;;;;;16.85;4.68;;;15.50;99.90;;;;;;4969223;28;20518;-92
2022/09/09 03:41:01;;;;;;;10.02;4.15;;;15.30;99.90;;;;;;4968267;28;20402;-92
2022/09/09 03:43:29;;;;;;;14.25;4.90;;;15.50;99.90;;;;;;4966466;28;20092;-92
2022/09/09 03:45:57;;;;;;;13.73;5.07;;;15.40;99.90;;;;;;4973355;28;20168;-93
2022/09/09 03:48:25;;;;;;;14.55;4.65;;;15.40;99.90;;;;;;4969374;28;20501;-91
2022/09/09 03:50:53;;;;;;;11.10;5.25;;;15.50;99.90;;;;;;4963076;28;20066;-93
2022/09/09 03:53:21;;;;;;;9.52;5.20;;;15.50;99.90;;;;;;4972643;28;20042;-93
2022/09/09 03:55:48;;;;;;;9.57;5.20;;;15.40;99.90;;;;;;4972118;28;20125;-93
2022/09/09 03:58:15;;;;;;;8.68;4.93;;;15.60;99.90;;;;;;4968366;28;20038;-92
2022/09/09 04:00:44;;;;;;;8.32;5.40;;;15.30;99.90;;;;;;4972358;28;20034;-93
2022/09/09 04:03:11;;;;;;;7.15;4.50;;;15.30;99.90;;;;;;4972776;28;20117;-93
2022/09/09 04:05:39;;;;;;;8.32;5.40;;;15.60;99.90;;;;;;4990220;28;20042;-93
2022/09/09 04:08:08;;;;;;;11.18;5.28;;;15.60;99.90;;;;;;4968458;28;20187;-93
2022/09/09 04:10:38;;;;;;;6.05;4.47;;;15.50;99.90;;;;;;4984686;28;20048;-92
2022/09/09 04:13:04;;;;;;;8.68;4.88;;;15.30;99.90;;;;;;4969740;28;20064;-93
2022/09/09 04:15:31;;;;;;;7.72;4.35;;;15.50;99.90;;;;;;4964857;28;20038;-94
2022/09/09 04:17:56;;;;;;;6.38;4.22;;;15.30;99.90;;;;;;4966187;28;20077;-94
2022/09/09 04:20:25;;;;;;;11.02;4.80;;;15.50;99.90;;;;;;4972059;28;20425;-92
2022/09/09 04:22:51;;;;;;;9.75;5.07;;;15.50;99.90;;;;;;4963971;28;20046;-93
2022/09/09 04:25:17;;;;;;;9.80;5.10;;;15.50;99.90;;;;;;4967806;28;20398;-95
2022/09/09 04:27:42;;;;;;;6.80;4.43;;;15.30;99.90;;;;;;4968755;28;20100;-92
2022/09/09 04:30:12;;;;;;;6.82;5.07;;;15.40;99.90;;;;;;4971174;28;20053;-94
2022/09/09 04:32:38;;;;;;;9.10;5.22;;;15.30;99.90;;;;;;5014232;28;20050;-93
2022/09/09 04:35:04;;;;;;;8.48;5.28;;;15.30;99.90;;;;;;4969151;28;20038;-94
2022/09/09 04:37:30;;;;;;;9.15;5.68;;;15.30;99.90;;;;;;4966602;28;20054;-94
2022/09/09 04:39:55;;;;;;;10.38;6.15;;;15.30;99.90;;;;;;4989736;28;20039;-92
2022/09/09 04:42:21;;;;;;;9.68;6.95;;;15.50;99.90;;;;;;4959693;28;20038;-94
2022/09/09 04:44:47;;;;;;;11.98;6.53;;;15.20;99.90;;;;;;4967700;28;20055;-92
2022/09/09 04:47:15;;;;;;;9.43;6.20;;;15.20;99.90;;;;;;4967777;28;20037;-92
2022/09/09 04:49:41;;;;;;;12.65;7.13;;;15.30;99.90;;;;;;4969452;28;20069;-93
2022/09/09 04:52:10;;;;;;;12.27;7.50;;;15.40;99.90;;;;;;4972105;28;20092;-93
2022/09/09 04:54:35;;;;;;;10.88;7.13;;;15.20;99.90;;;;;;4965472;28;20070;-92
2022/09/09 04:57:01;;;;;;;13.13;8.05;;;15.40;99.90;;;;;;4969302;28;20077;-93
2022/09/09 04:59:27;;;;;;;10.80;7.43;;;15.40;99.90;;;;;;5010085;28;20039;-91
2022/09/09 05:01:54;;;;;;;14.35;8.30;;;15.30;99.90;;;;;;4962441;28;20044;-93
2022/09/09 05:04:21;;;;;;;15.13;8.02;;;15.30;99.90;;;;;;4971065;28;20056;-92
2022/09/09 05:06:46;;;;;;;12.05;7.50;;;15.20;99.90;;;;;;5012445;28;20510;-91
2022/09/09 05:09:12;;;;;;;13.82;8.85;;;15.10;99.90;;;;;;4962672;28;20043;-93
2022/09/09 05:11:38;;;;;;;15.20;9.00;;;15.20;99.90;;;;;;4992120;28;20077;-91
2022/09/09 05:14:04;;;;;;;12.00;8.40;;;15.10;99.90;;;;;;4972306;28;20065;-91
2022/09/09 05:16:30;;;;;;;11.30;8.40;;;15.30;99.90;;;;;;4972953;28;20116;-91
2022/09/09 05:18:59;;;;;;;14.35;8.75;;;15.20;99.90;;;;;;4967643;28;20068;-91
2022/09/09 05:21:26;;;;;;;17.73;8.88;;;15.30;99.90;;;;;;4967333;28;20045;-92
2022/09/09 05:23:51;;;;;;;15.93;9.07;;;15.20;99.90;;;;;;4972122;28;20132;-92
2022/09/09 05:26:20;;;;;;;15.43;9.48;;;15.10;99.90;;;;;;4991775;28;20348;-92
2022/09/09 05:28:46;;;;;;;13.77;9.50;;;15.20;99.90;;;;;;4972815;28;20043;-92
2022/09/09 05:31:14;;;;;;;15.75;9.65;;;15.10;99.90;;;;;;4971254;28;20133;-93
2022/09/09 05:33:42;;;;;;;17.27;9.80;;;15.30;99.90;;;;;;4971946;28;20046;-92
2022/09/09 05:36:14;;;;;;;15.15;10.25;;;15.40;99.90;;;;;;4995315;28;20077;-92
2022/09/09 05:38:43;;;;;;;16.55;9.85;;;15.10;99.90;;;;;;4967429;28;20491;-92
2022/09/09 05:41:11;;;;;;;15.52;9.18;;;15.20;99.90;;;;;;4968807;28;20133;-92
2022/09/09 05:43:37;;;;;;;15.07;10.30;;;15.40;99.90;;;;;;4969653;28;20066;-91
2022/09/09 05:46:08;;;;;;;15.63;10.55;;;15.10;99.90;;;;;;4997324;28;20035;-92
2022/09/09 05:48:37;;;;;;;15.15;10.15;;;15.40;99.90;;;;;;4992793;28;20199;-93
2022/09/09 05:51:04;;;;;;;14.27;10.40;;;15.20;99.90;;;;;;4994503;28;20063;-93
2022/09/09 05:53:34;;;;;;;13.18;10.18;;;15.20;99.90;;;;;;4996556;28;20046;-93
2022/09/09 05:56:05;;;;;;;16.15;10.68;;;15.20;99.90;;;;;;4970131;28;20037;-92
2022/09/09 05:58:33;;;;;;;13.60;9.73;;;15.50;99.90;;;;;;4980615;28;20124;-92
2022/09/09 06:01:09;;;;;;;14.43;10.40;;;15.40;99.90;;;;;;4993000;28;20030;-93
2022/09/09 06:03:36;;;;;;;12.73;8.82;;;15.40;99.90;;;;;;4989915;28;20057;-92
2022/09/09 06:06:07;;;;;;;17.48;10.27;;;15.50;99.90;;;;;;4962879;28;20069;-91
2022/09/09 06:08:44;;;;;;;15.70;9.20;;;15.50;99.90;;;;;;4996370;28;20132;-91
2022/09/09 06:11:18;;;;;;;11.70;8.55;;;15.20;99.90;;;;;;4990195;28;20041;-92
2022/09/09 06:13:44;;;;;;;14.35;8.35;;;15.30;99.90;;;;;;4972887;28;20046;-94
2022/09/09 06:16:16;;;;;;;11.90;8.90;;;15.50;99.90;;;;;;4973678;28;20042;-93
2022/09/09 06:18:43;;;;;;;10.98;8.70;;;15.50;99.90;;;;;;4995540;28;20044;-94
2022/09/09 06:21:15;;;;;;;14.27;8.77;;;15.30;99.90;;;;;;4971962;28;20039;-93
2022/09/09 06:23:41;;;;;;;13.27;8.63;;;15.50;99.90;;;;;;4968503;28;20077;-92
2022/09/09 06:26:14;;;;;;;12.60;9.02;;;15.50;99.90;;;;;;4974528;28;20453;-92
2022/09/09 06:28:42;;;;;;;11.52;9.00;;;15.40;99.90;;;;;;4974265;28;20081;-93
2022/09/09 06:31:11;;;;;;;14.80;9.15;;;15.40;99.90;;;;;;4975307;28;20038;-93
2022/09/09 06:33:40;;;;;;;11.48;7.95;;;15.40;99.90;;;;;;4969996;28;20548;-93
2022/09/09 06:36:18;;;;;;;11.75;8.57;;;15.70;99.90;;;;;;4974767;28;20046;-94
2022/09/09 06:38:45;;;;;;;13.55;9.00;;;15.40;99.90;;;;;;4975614;28;20042;-91
2022/09/09 06:41:12;;;;;;;10.98;8.50;;;15.70;99.90;;;;;;4974057;28;20165;-91
2022/09/09 06:43:39;;;;;;;10.73;8.13;;;15.50;99.90;;;;;;4975341;28;20048;-92
2022/09/09 06:46:18;;;;;;;13.30;8.50;;;15.50;99.90;;;;;;4975897;28;20442;-93
2022/09/09 06:48:44;;;;;;;10.98;8.68;;;15.80;99.90;;;;;;4972003;28;20497;-92
2022/09/09 06:51:14;;;;;;;10.75;8.30;;;15.80;99.90;;;;;;4977122;28;20093;-92
2022/09/09 06:53:41;;;;;;;12.88;8.63;;;15.80;99.90;;;;;;4995605;28;20068;-94
2022/09/09 06:56:10;;;;;;;12.10;8.55;;;15.80;99.90;;;;;;4993433;28;20422;-91
2022/09/09 06:58:43;;;;;;;11.98;8.43;;;16.00;99.90;;;;;;4971162;28;20042;-93
2022/09/09 07:01:12;;;;;;;9.90;8.23;;;16.00;99.90;;;;;;4974074;28;20038;-91
2022/09/09 07:03:39;;;;;;;10.30;7.75;;;16.00;99.90;;;;;;4972352;28;20050;-92
2022/09/09 07:06:07;;;;;;;10.73;7.47;;;15.90;99.90;;;;;;4975727;28;20107;-93
2022/09/09 07:08:36;;;;;;;14.13;8.18;;;16.00;99.90;;;;;;4971319;28;20552;-93
2022/09/09 07:11:07;;;;;;;11.15;8.30;;;16.20;99.90;;;;;;4996420;28;20042;-94
2022/09/09 07:13:33;;;;;;;11.90;8.60;;;16.10;99.90;;;;;;4970946;28;20104;-93
2022/09/09 07:16:07;;;;;;;10.73;8.02;;;16.20;99.90;;;;;;4974785;28;20121;-93
2022/09/09 07:18:34;;;;;;;10.93;8.20;;;16.30;99.90;;;;;;4976772;28;20034;-92
2022/09/09 07:21:00;;;;;;;9.77;8.00;;;16.40;99.90;;;;;;4989496;28;20727;-93
2022/09/09 07:23:26;;;;;;;10.30;8.02;;;16.40;99.90;;;;;;4976633;28;20118;-93
2022/09/09 07:25:55;;;;;;;12.98;7.68;;;16.50;99.90;;;;;;4978520;28;20132;-92
2022/09/09 07:28:21;;;;;;;10.68;7.68;;;16.60;99.90;;;;;;4978606;28;20439;-93
2022/09/09 07:30:55;;;;;;;8.73;7.32;;;16.60;99.90;;;;;;4976199;28;20065;-93
2022/09/09 07:33:26;;;;;;;12.07;7.30;;;16.60;99.90;;;;;;4975898;28;20049;-94
2022/09/09 07:35:52;;;;;;;11.63;7.70;;;16.70;99.90;;;;;;4969403;28;20042;-94
2022/09/09 07:38:20;;;;;;;12.40;7.55;;;16.70;99.90;;;;;;4976087;28;20117;-94
2022/09/09 07:40:46;;;;;;;9.30;7.22;;;16.90;99.90;;;;;;4975452;28;20042;-93
2022/09/09 07:43:17;;;;;;;11.45;7.25;;;17.00;99.90;;;;;;4976417;28;20099;-94
2022/09/09 07:45:42;;;;;;;8.18;6.85;;;16.90;99.90;;;;;;4974382;28;20794;-93
2022/09/09 07:48:09;;;;;;;7.65;6.28;;;17.10;99.90;;;;;;4979887;28;20034;-94
2022/09/09 07:50:37;;;;;;;8.80;6.63;;;17.00;99.90;;;;;;4990993;28;20560;-94
2022/09/09 07:53:04;;;;;;;8.35;6.82;;;17.20;99.90;;;;;;4973860;28;20055;-93
2022/09/09 07:55:31;;;;;;;8.90;6.22;;;17.20;99.90;;;;;;4976109;28;20042;-93
2022/09/09 07:57:56;;;;;;;7.55;5.78;;;17.30;99.90;;;;;;4977513;28;20038;-94
2022/09/09 08:00:23;;;;;;;8.98;5.88;;;17.30;99.90;;;;;;4975292;28;20039;-95
2022/09/09 08:02:49;;;;;;;7.15;5.97;;;17.50;99.90;;;;;;4971960;28;20040;-96
2022/09/09 08:05:16;;;;;;;6.25;5.65;;;17.90;99.90;;;;;;5013524;28;20422;-93
2022/09/09 08:07:42;;;;;;;8.13;6.13;;;17.70;99.90;;;;;;4971701;28;20045;-94
2022/09/09 08:10:11;;;;;;;7.35;5.30;;;18.10;99.90;;;;;;4972820;28;20169;-92
2022/09/09 08:12:36;;;;;;;7.97;5.45;;;18.10;99.90;;;;;;4972885;28;20072;-94
2022/09/09 08:15:02;;;;;;;8.63;5.35;;;18.30;99.90;;;;;;4967989;28;20042;-95
2022/09/09 08:17:28;;;;;;;8.57;5.40;;;18.60;99.90;;;;;;4972179;28;20046;-92
2022/09/09 08:19:54;;;;;;;7.95;5.10;;;18.60;99.90;;;;;;4974111;28;20337;-94
2022/09/09 08:22:20;;;;;;;7.85;5.00;;;18.70;99.90;;;;;;4970591;28;20054;-92
2022/09/09 08:24:47;;;;;;;9.15;5.30;;;18.50;99.90;;;;;;4971892;28;20613;-94
2022/09/09 08:27:15;;;;;;;7.63;5.22;;;18.50;99.90;;;;;;4988265;28;20161;-93
2022/09/09 08:29:41;;;;;;;9.02;5.43;;;18.60;99.90;;;;;;4970591;28;21570;-93
2022/09/09 08:32:07;;;;;;;7.35;5.00;;;18.90;99.90;;;;;;4975052;28;20045;-93
2022/09/09 08:34:33;;;;;;;7.63;5.15;;;18.70;99.90;;;;;;4972664;28;20042;-92
2022/09/09 08:36:58;;;;;;;8.52;4.88;;;18.90;99.90;;;;;;4969271;28;20456;-92
2022/09/09 08:39:24;;;;;;;7.40;5.00;;;18.70;99.90;;;;;;4975738;28;20049;-91
2022/09/09 08:42:01;;;;;;;7.88;5.47;;;18.90;99.90;;;;;;4973528;28;20038;-92
2022/09/09 08:44:55;;;;;;;8.13;5.20;;;18.50;99.90;;;;;;4998633;28;20120;-94
2022/09/09 08:47:48;;;;;;;7.75;4.60;;;18.50;99.90;;;;;;4970940;28;20034;-94
2022/09/09 08:50:32;;;;;;;6.10;4.80;;;18.60;99.90;;;;;;4986851;28;20093;-94
2022/09/09 08:53:09;;;;;;;7.15;4.95;;;18.50;99.90;;;;;;4967079;28;20045;-92
2022/09/09 08:55:54;;;;;;;9.65;5.70;;;18.30;99.90;;;;;;4965392;28;20250;-93
2022/09/09 08:58:24;;;;;;;7.93;4.70;;;18.40;99.90;;;;;;4973920;28;20038;-95
2022/09/09 09:01:10;;;;;;;8.27;4.70;;;18.70;99.90;;;;;;4987076;28;20568;-94
2022/09/09 09:04:03;;;;;;;8.18;5.07;;;18.60;99.90;;;;;;4965715;28;20101;-93
2022/09/09 09:06:37;;;;;;;7.45;4.72;;;18.70;99.90;;;;;;4961676;28;20524;-94
2022/09/09 09:09:18;;;;;;;7.90;4.38;;;18.80;99.90;;;;;;4992782;28;20046;-92
2022/09/09 09:11:51;;;;;;;12.02;4.57;;;18.90;99.90;;;;;;4985983;28;20053;-90
2022/09/09 09:14:23;;;;;;;6.68;4.63;;;19.00;99.90;;;;;;4971938;28;20072;-93
2022/09/09 09:17:01;;;;;;;7.70;4.55;;;19.50;77.10;;;;;;4992523;28;20066;-92
2022/09/09 09:19:33;;;;;;;6.40;4.00;;;19.60;37.40;;;;;;4970126;28;20118;-93
2022/09/09 09:22:27;;;;;;;9.57;4.30;;;19.80;99.90;;;;;;4988395;28;20498;-92
2022/09/09 09:25:02;;;;;;;10.70;4.18;;;19.80;70.60;;;;;;4977923;28;20422;-93
2022/09/09 09:27:33;;;;;;;10.23;3.90;;;20.10;99.90;;;;;;4979233;28;20046;-93
2022/09/09 09:30:15;;;;;;;11.52;4.13;;;20.10;1.00;;;;;;4974925;28;20046;-93
2022/09/09 09:32:51;;;;;;;6.57;3.83;;;19.90;69.50;;;;;;4975078;28;20393;-94
2022/09/09 09:35:17;;;;;;;7.93;3.63;;;20.00;1.00;;;;;;4976354;28;20042;-94
2022/09/09 09:37:43;;;;;;;8.23;3.63;;;20.00;1.00;;;;;;4974469;28;20564;-92
2022/09/09 09:40:14;;;;;;;7.70;3.55;;;20.10;99.90;;;;;;4971377;28;20592;-93
2022/09/09 09:42:59;;;;;;;9.48;3.85;;;19.90;1.00;;;;;;4974939;28;20502;-95
2022/09/09 09:45:34;;;;;;;9.90;3.88;;;20.10;99.90;;;;;;4975552;28;20038;-93
2022/09/09 09:48:13;;;;;;;6.03;3.13;;;20.40;99.90;;;;;;4999743;28;20458;-94
2022/09/09 09:51:16;;;;;;;5.30;3.13;;;20.20;99.90;;;;;;4975881;28;20480;-94
2022/09/09 09:53:42;;;;;;;10.55;3.90;;;20.40;82.60;;;;;;5004662;28;20094;-93
2022/09/09 09:56:14;;;;;;;8.38;2.80;;;20.60;1.00;;;;;;4977195;28;20052;-93
2022/09/09 09:58:46;;;;;;;8.30;3.00;;;21.30;99.90;;;;;;4981876;28;20082;-93
2022/09/09 10:01:27;;;;;;;9.55;3.10;;;21.40;1.00;;;;;;4976184;28;20103;-93
2022/09/09 10:04:18;;;;;;;7.40;2.88;;;21.40;99.90;;;;;;4976520;28;20072;-95
2022/09/09 10:06:44;;;;;;;7.03;2.95;;;21.30;73.90;;;;;;4977189;28;20106;-92
2022/09/09 10:09:25;;;;;;;6.63;2.42;;;20.90;1.00;;;;;;4987665;28;20042;-92
2022/09/09 10:11:52;;;;;;;8.15;2.80;;;20.90;1.00;;;;;;4976182;28;20068;-92
2022/09/09 10:14:17;;;;;;;6.70;2.67;;;20.90;1.00;;;;;;4974975;28;20049;-94
2022/09/09 10:17:27;;;;;;;5.38;2.78;;;21.00;99.90;;;;;;4968216;28;20034;-95
2022/09/09 10:20:30;;;;;;;6.97;2.45;;;20.30;99.90;;;;;;4974094;28;20049;-90
2022/09/09 10:23:16;;;;;;;8.70;2.65;;;20.40;1.00;;;;;;4984318;28;20153;-92
2022/09/09 10:26:21;;;;;;;7.47;2.28;;;20.60;66.50;;;;;;4965528;28;20430;-93
2022/09/09 10:29:24;;;;;;;7.97;2.30;;;21.30;99.90;;;;;;4974849;28;20215;-92
2022/09/09 10:32:20;;;;;;;8.05;3.33;;;21.00;99.90;;;;;;4971509;28;20343;-92
2022/09/09 10:35:19;;;;;;;5.95;2.50;;;20.40;99.90;;;;;;5000070;28;20042;-92
2022/09/09 10:38:01;;;;;;;6.75;2.20;;;20.40;99.90;;;;;;4943032;28;20065;-91
2022/09/09 10:40:44;;;;;;;6.00;2.13;;;21.20;99.90;;;;;;4972903;28;20065;-92
2022/09/09 10:43:18;;;;;;;8.80;2.28;;;21.60;99.90;;;;;;4968497;28;20046;-93
2022/09/09 10:45:57;;;;;;;3.70;1.88;;;21.80;99.90;;;;;;4976597;28;20144;-94
2022/09/09 10:48:31;;;;;;;4.68;1.75;;;21.90;99.90;;;;;;4979570;28;20478;-93
2022/09/09 10:51:15;;;;;;;5.97;1.73;;;21.50;99.90;;;;;;4999426;28;20188;-93
2022/09/09 10:53:46;;;;;;;4.85;1.88;;;21.50;99.90;;;;;;5006840;28;20051;-93
2022/09/09 10:56:20;;;;;;;7.25;2.08;;;21.30;1.00;;;;;;4970893;28;20148;-92
2022/09/09 10:59:22;;;;;;;4.45;1.83;;;21.50;99.90;;;;;;4973282;28;20042;-93
2022/09/09 11:01:57;;;;;;;8.68;2.15;;;21.20;99.90;;;;;;4922902;28;20181;-92
2022/09/09 11:04:41;;;;;;;5.68;1.80;;;21.20;99.90;;;;;;4969519;28;20191;-91
2022/09/09 11:07:15;;;;;;;10.75;2.03;;;21.30;99.90;;;;;;4999600;28;20097;-92
2022/09/09 11:09:52;;;;;;;5.93;1.40;;;21.80;99.90;;;;;;4969356;28;20046;-95
2022/09/09 11:12:20;;;;;;;5.20;1.70;;;21.90;99.90;;;;;;4960721;28;20129;-91
2022/09/09 11:14:55;;;;;;;7.15;1.83;;;21.90;99.90;;;;;;4976314;28;20042;-92
2022/09/09 11:17:27;;;;;;;;;;;22.00;1.00;;;;;;4974058;28;20039;-92
2022/09/09 11:19:53;;;;;;;4.72;1.65;;;22.50;99.90;;;;;;4999641;28;20069;-92
2022/09/09 11:22:40;;;;;;;3.63;2.05;;;22.30;1.00;;;;;;4998333;28;20038;-91
2022/09/09 11:25:33;;;;;;;3.58;1.63;;;22.70;99.90;;;;;;4965803;28;20069;-93
2022/09/09 11:28:15;;;;;;;5.10;1.90;;;22.20;99.90;;;;;;4967858;28;20161;-92
2022/09/09 11:31:05;;;;;;;4.18;1.60;;;21.70;99.90;;;;;;4965680;28;20049;-93
2022/09/09 11:33:59;;;;;;;7.70;2.17;;;21.20;99.90;;;;;;4986938;28;20078;-92
2022/09/09 11:37:04;;;;;;;5.55;1.90;;;21.20;1.00;;;;;;4987984;28;20125;-92
2022/09/09 11:39:30;;;;;;;5.97;1.80;;;21.50;99.90;;;;;;4953753;28;20162;-92
2022/09/09 11:42:19;;;;;;;4.82;1.83;;;21.90;99.90;;;;;;4969002;28;20137;-91
2022/09/09 11:44:45;;;;;;;4.40;1.50;;;22.20;1.00;;;;;;4976504;28;20042;-92
2022/09/09 11:47:31;;;;;;;4.60;1.60;;;22.40;46.80;;;;;;4960985;28;20359;-94
2022/09/09 11:50:15;;;;;;;4.45;1.70;;;22.00;99.90;;;;;;4976330;28;20042;-92
2022/09/09 11:52:48;;;;;;;5.00;1.63;;;21.80;81.10;;;;;;4974524;28;20050;-93
2022/09/09 11:55:33;;;;;;;6.95;1.83;;;22.10;99.90;;;;;;4967343;28;20696;-92
2022/09/09 11:58:03;;;;;;;;;;;21.90;1.00;;;;;;5000263;28;20092;-95
2022/09/09 12:00:44;;;;;;;6.28;1.80;;;21.90;99.90;;;;;;4987122;28;20005;-93
2022/09/09 12:03:31;;;;;;;7.20;2.08;;;22.00;99.90;;;;;;4968169;28;20506;-93
2022/09/09 12:05:58;;;;;;;5.82;1.95;;;22.10;99.90;;;;;;4975752;28;20581;-92
2022/09/09 12:08:29;;;;;;;4.45;1.40;;;22.00;99.90;;;;;;4963700;28;20037;-92
2022/09/09 12:10:57;;;;;;;8.20;2.10;;;21.90;1.00;;;;;;4958895;28;20046;-92
2022/09/09 12:13:25;;;;;;;5.05;1.55;;;21.90;99.90;;;;;;5000574;28;20042;-93
2022/09/09 12:15:56;;;;;;;5.40;1.52;;;21.80;99.90;;;;;;4968433;28;20034;-92
2022/09/09 12:18:25;;;;;;;8.07;1.90;;;21.60;99.90;;;;;;4971075;28;20034;-93
2022/09/09 12:21:03;;;;;;;4.50;1.60;;;21.50;99.90;;;;;;4999164;28;20122;-92
2022/09/09 12:23:40;;;;;;;6.38;1.73;;;21.20;1.00;;;;;;4965084;28;20038;-92
2022/09/09 12:26:41;;;;;;;5.00;1.90;;;21.20;1.00;;;;;;4965076;28;20084;-94
2022/09/09 12:29:25;;;;;;;6.45;1.90;;;21.30;99.90;;;;;;4973927;28;20853;-93
2022/09/09 12:32:20;;;;;;;8.75;2.17;;;21.70;99.90;;;;;;4970339;28;20039;-92
2022/09/09 12:35:14;;;;;;;4.72;1.90;;;21.70;99.90;;;;;;4973695;28;20062;-91
2022/09/09 12:37:53;;;;;;;6.50;2.20;;;21.80;99.90;;;;;;4959278;28;20133;-91
2022/09/09 12:40:24;;;;;;;9.05;2.22;;;22.20;99.90;;;;;;4961721;28;20264;-91
2022/09/09 12:42:51;;;;;;;7.28;2.40;;;22.60;19.40;;;;;;4969078;28;20042;-92
2022/09/09 12:45:20;;;;;;;4.95;1.70;;;22.40;82.10;;;;;;4971922;28;20034;-91
2022/09/09 12:47:55;;;;;;;4.75;1.80;;;22.80;99.90;;;;;;4977016;28;20811;-94
2022/09/09 12:50:27;;;;;;;6.22;2.08;;;23.00;99.90;;;;;;4990682;28;20123;-92
2022/09/09 12:53:07;;;;;;;5.22;1.92;;;22.40;99.90;;;;;;4978725;28;20485;-92
2022/09/09 12:55:37;;;;;;;5.18;1.90;;;23.10;99.90;;;;;;4955991;28;20046;-91
2022/09/09 12:58:05;;;;;;;6.63;1.70;;;22.60;99.90;;;;;;4965375;28;20506;-91
2022/09/09 13:00:32;;;;;;;5.53;1.80;;;22.70;1.00;;;;;;4966955;28;20034;-94
2022/09/09 13:03:15;;;;;;;2.85;1.58;;;22.90;91.70;;;;;;4971435;28;20061;-91
2022/09/09 13:05:42;;;;;;;3.72;1.25;;;23.40;99.90;;;;;;4965178;28;20523;-90
2022/09/09 13:08:13;;;;;;;3.75;1.45;;;23.30;99.90;;;;;;4986606;28;20129;-94
2022/09/09 13:11:04;;;;;;;5.10;1.73;;;23.30;6.90;;;;;;4971141;28;20117;-92
2022/09/09 13:13:39;;;;;;;6.55;1.85;;;23.00;99.90;;;;;;4967152;28;20176;-91
2022/09/09 13:16:08;;;;;;;;;;;22.70;36.70;;;;;;4998621;28;20139;-91